sensor_id;sensor_type;location;lat;lon;timestamp;P1;durP1;ratioP1;P2;durP2;ratioP2
13469;SDS011;6807;48.682;9.032;2022-12-18T00:00:49;23.63;;;14.00;;
13469;SDS011;6807;48.682;9.032;2022-12-18T00:03:16;23.87;;;14.47;;
13469;SDS011;6807;48.682;9.032;2022-12-18T00:05:47;31.10;;;17.37;;
13469;SDS011;6807;48.682;9.032;2022-12-18T00:08:14;31.57;;;15.43;;
13469;SDS011;6807;48.682;9.032;2022-12-18T00:10:42;26.13;;;14.27;;
13469;SDS011;6807;48.682;9.032;2022-12-18T00:13:09;31.73;;;14.57;;
13469;SDS011;6807;48.682;9.032;2022-12-18T00:15:38;35.80;;;15.37;;
13469;SDS011;6807;48.682;9.032;2022-12-18T00:18:06;27.07;;;14.07;;
13469;SDS011;6807;48.682;9.032;2022-12-18T00:20:35;27.47;;;15.63;;
13469;SDS011;6807;48.682;9.032;2022-12-18T00:23:03;25.00;;;13.87;;
13469;SDS011;6807;48.682;9.032;2022-12-18T00:25:32;26.60;;;14.27;;
13469;SDS011;6807;48.682;9.032;2022-12-18T00:28:00;37.17;;;14.87;;
13469;SDS011;6807;48.682;9.032;2022-12-18T00:30:27;26.03;;;12.47;;
13469;SDS011;6807;48.682;9.032;2022-12-18T00:32:56;24.03;;;14.47;;
13469;SDS011;6807;48.682;9.032;2022-12-18T00:35:24;21.03;;;11.70;;
13469;SDS011;6807;48.682;9.032;2022-12-18T00:38:05;24.23;;;13.27;;
13469;SDS011;6807;48.682;9.032;2022-12-18T00:40:33;28.87;;;14.23;;
13469;SDS011;6807;48.682;9.032;2022-12-18T00:43:06;35.80;;;14.40;;
13469;SDS011;6807;48.682;9.032;2022-12-18T00:45:32;21.27;;;13.00;;
13469;SDS011;6807;48.682;9.032;2022-12-18T00:48:01;31.40;;;13.50;;
13469;SDS011;6807;48.682;9.032;2022-12-18T00:50:28;24.13;;;12.83;;
13469;SDS011;6807;48.682;9.032;2022-12-18T00:52:55;28.10;;;13.67;;
13469;SDS011;6807;48.682;9.032;2022-12-18T00:55:22;26.57;;;15.87;;
13469;SDS011;6807;48.682;9.032;2022-12-18T00:57:50;24.13;;;13.23;;
13469;SDS011;6807;48.682;9.032;2022-12-18T01:00:18;26.07;;;14.40;;
13469;SDS011;6807;48.682;9.032;2022-12-18T01:02:47;25.17;;;13.83;;
13469;SDS011;6807;48.682;9.032;2022-12-18T01:05:16;25.10;;;13.33;;
13469;SDS011;6807;48.682;9.032;2022-12-18T01:07:43;23.83;;;13.17;;
13469;SDS011;6807;48.682;9.032;2022-12-18T01:10:11;22.50;;;12.43;;
13469;SDS011;6807;48.682;9.032;2022-12-18T01:12:39;26.30;;;13.30;;
13469;SDS011;6807;48.682;9.032;2022-12-18T01:15:06;24.90;;;13.77;;
13469;SDS011;6807;48.682;9.032;2022-12-18T01:17:34;24.77;;;13.00;;
13469;SDS011;6807;48.682;9.032;2022-12-18T01:20:01;21.60;;;11.53;;
13469;SDS011;6807;48.682;9.032;2022-12-18T01:22:30;24.63;;;12.53;;
13469;SDS011;6807;48.682;9.032;2022-12-18T01:24:58;27.53;;;12.37;;
13469;SDS011;6807;48.682;9.032;2022-12-18T01:27:26;24.97;;;11.17;;
13469;SDS011;6807;48.682;9.032;2022-12-18T01:29:53;20.97;;;12.00;;
13469;SDS011;6807;48.682;9.032;2022-12-18T01:35:00;23.07;;;10.40;;
13469;SDS011;6807;48.682;9.032;2022-12-18T01:37:27;17.50;;;12.20;;
13469;SDS011;6807;48.682;9.032;2022-12-18T01:39:57;20.03;;;11.20;;
13469;SDS011;6807;48.682;9.032;2022-12-18T01:42:24;23.23;;;10.97;;
13469;SDS011;6807;48.682;9.032;2022-12-18T01:47:38;22.53;;;12.00;;
13469;SDS011;6807;48.682;9.032;2022-12-18T01:50:09;17.53;;;11.47;;
13469;SDS011;6807;48.682;9.032;2022-12-18T01:52:40;21.27;;;10.60;;
13469;SDS011;6807;48.682;9.032;2022-12-18T01:55:10;21.93;;;10.10;;
13469;SDS011;6807;48.682;9.032;2022-12-18T01:57:37;21.10;;;10.53;;
13469;SDS011;6807;48.682;9.032;2022-12-18T02:00:06;19.50;;;12.00;;
13469;SDS011;6807;48.682;9.032;2022-12-18T02:02:36;20.03;;;11.77;;
13469;SDS011;6807;48.682;9.032;2022-12-18T02:05:03;22.37;;;12.53;;
13469;SDS011;6807;48.682;9.032;2022-12-18T02:07:33;27.57;;;14.50;;
13469;SDS011;6807;48.682;9.032;2022-12-18T02:12:48;25.03;;;13.13;;
13469;SDS011;6807;48.682;9.032;2022-12-18T02:15:17;19.10;;;11.87;;
13469;SDS011;6807;48.682;9.032;2022-12-18T02:17:47;22.83;;;10.77;;
13469;SDS011;6807;48.682;9.032;2022-12-18T02:20:20;17.97;;;11.10;;
13469;SDS011;6807;48.682;9.032;2022-12-18T02:22:53;16.33;;;11.20;;
13469;SDS011;6807;48.682;9.032;2022-12-18T02:28:04;23.77;;;11.47;;
13469;SDS011;6807;48.682;9.032;2022-12-18T02:30:36;20.73;;;12.43;;
13469;SDS011;6807;48.682;9.032;2022-12-18T02:33:05;22.63;;;13.03;;
13469;SDS011;6807;48.682;9.032;2022-12-18T02:35:33;29.03;;;14.17;;
13469;SDS011;6807;48.682;9.032;2022-12-18T02:38:01;29.13;;;13.27;;
13469;SDS011;6807;48.682;9.032;2022-12-18T02:40:29;23.37;;;12.17;;
13469;SDS011;6807;48.682;9.032;2022-12-18T02:43:02;21.10;;;10.80;;
13469;SDS011;6807;48.682;9.032;2022-12-18T02:45:34;26.63;;;12.77;;
13469;SDS011;6807;48.682;9.032;2022-12-18T02:48:01;21.53;;;12.57;;
13469;SDS011;6807;48.682;9.032;2022-12-18T02:50:30;26.80;;;13.10;;
13469;SDS011;6807;48.682;9.032;2022-12-18T02:53:02;29.83;;;14.00;;
13469;SDS011;6807;48.682;9.032;2022-12-18T02:55:37;18.60;;;9.50;;
13469;SDS011;6807;48.682;9.032;2022-12-18T02:58:10;24.63;;;12.37;;
13469;SDS011;6807;48.682;9.032;2022-12-18T03:00:43;26.20;;;12.87;;
13469;SDS011;6807;48.682;9.032;2022-12-18T03:03:11;21.47;;;11.13;;
13469;SDS011;6807;48.682;9.032;2022-12-18T03:05:43;17.57;;;11.03;;
13469;SDS011;6807;48.682;9.032;2022-12-18T03:08:17;26.53;;;11.90;;
13469;SDS011;6807;48.682;9.032;2022-12-18T03:10:47;15.37;;;10.00;;
13469;SDS011;6807;48.682;9.032;2022-12-18T03:13:16;23.47;;;12.73;;
13469;SDS011;6807;48.682;9.032;2022-12-18T03:15:48;15.87;;;10.57;;
13469;SDS011;6807;48.682;9.032;2022-12-18T03:18:17;19.40;;;10.90;;
13469;SDS011;6807;48.682;9.032;2022-12-18T03:20:45;20.40;;;11.80;;
13469;SDS011;6807;48.682;9.032;2022-12-18T03:23:15;19.13;;;11.40;;
13469;SDS011;6807;48.682;9.032;2022-12-18T03:25:44;24.43;;;11.97;;
13469;SDS011;6807;48.682;9.032;2022-12-18T03:28:12;22.53;;;11.53;;
13469;SDS011;6807;48.682;9.032;2022-12-18T03:30:59;27.87;;;13.53;;
13469;SDS011;6807;48.682;9.032;2022-12-18T03:33:28;18.37;;;10.70;;
13469;SDS011;6807;48.682;9.032;2022-12-18T03:35:56;25.50;;;12.63;;
13469;SDS011;6807;48.682;9.032;2022-12-18T03:38:24;19.10;;;10.80;;
13469;SDS011;6807;48.682;9.032;2022-12-18T03:40:53;22.00;;;11.07;;
13469;SDS011;6807;48.682;9.032;2022-12-18T03:43:29;17.30;;;10.33;;
13469;SDS011;6807;48.682;9.032;2022-12-18T03:46:02;21.80;;;12.33;;
13469;SDS011;6807;48.682;9.032;2022-12-18T03:48:32;15.60;;;10.40;;
13469;SDS011;6807;48.682;9.032;2022-12-18T03:51:05;19.70;;;12.03;;
13469;SDS011;6807;48.682;9.032;2022-12-18T03:53:36;16.67;;;9.97;;
13469;SDS011;6807;48.682;9.032;2022-12-18T03:56:06;18.60;;;9.17;;
13469;SDS011;6807;48.682;9.032;2022-12-18T04:01:10;17.37;;;9.30;;
13469;SDS011;6807;48.682;9.032;2022-12-18T04:03:40;25.23;;;10.67;;
13469;SDS011;6807;48.682;9.032;2022-12-18T04:06:08;15.33;;;9.60;;
13469;SDS011;6807;48.682;9.032;2022-12-18T04:08:35;19.40;;;11.17;;
13469;SDS011;6807;48.682;9.032;2022-12-18T04:11:03;12.87;;;8.47;;
13469;SDS011;6807;48.682;9.032;2022-12-18T04:13:32;20.10;;;10.60;;
13469;SDS011;6807;48.682;9.032;2022-12-18T04:16:00;16.87;;;9.73;;
13469;SDS011;6807;48.682;9.032;2022-12-18T04:18:35;18.23;;;8.97;;
13469;SDS011;6807;48.682;9.032;2022-12-18T04:21:02;16.40;;;10.73;;
13469;SDS011;6807;48.682;9.032;2022-12-18T04:23:29;13.37;;;9.80;;
13469;SDS011;6807;48.682;9.032;2022-12-18T04:25:57;15.10;;;9.00;;
13469;SDS011;6807;48.682;9.032;2022-12-18T04:28:28;13.20;;;9.07;;
13469;SDS011;6807;48.682;9.032;2022-12-18T04:30:56;20.60;;;12.23;;
13469;SDS011;6807;48.682;9.032;2022-12-18T04:33:23;21.00;;;11.10;;
13469;SDS011;6807;48.682;9.032;2022-12-18T04:38:23;18.83;;;11.20;;
13469;SDS011;6807;48.682;9.032;2022-12-18T04:40:50;16.00;;;9.83;;
13469;SDS011;6807;48.682;9.032;2022-12-18T04:43:17;18.37;;;10.27;;
13469;SDS011;6807;48.682;9.032;2022-12-18T04:45:44;24.63;;;11.77;;
13469;SDS011;6807;48.682;9.032;2022-12-18T04:48:12;20.47;;;9.93;;
13469;SDS011;6807;48.682;9.032;2022-12-18T04:50:39;20.23;;;10.27;;
13469;SDS011;6807;48.682;9.032;2022-12-18T04:53:06;18.37;;;9.63;;
13469;SDS011;6807;48.682;9.032;2022-12-18T04:55:35;15.87;;;8.33;;
13469;SDS011;6807;48.682;9.032;2022-12-18T04:58:02;17.47;;;9.10;;
13469;SDS011;6807;48.682;9.032;2022-12-18T05:00:29;20.53;;;11.27;;
13469;SDS011;6807;48.682;9.032;2022-12-18T05:02:57;16.17;;;9.37;;
13469;SDS011;6807;48.682;9.032;2022-12-18T05:05:24;14.80;;;8.57;;
13469;SDS011;6807;48.682;9.032;2022-12-18T05:07:51;17.00;;;9.50;;
13469;SDS011;6807;48.682;9.032;2022-12-18T05:10:19;20.53;;;10.03;;
13469;SDS011;6807;48.682;9.032;2022-12-18T05:12:47;18.30;;;9.77;;
13469;SDS011;6807;48.682;9.032;2022-12-18T05:15:26;14.77;;;10.13;;
13469;SDS011;6807;48.682;9.032;2022-12-18T05:17:53;21.43;;;10.73;;
13469;SDS011;6807;48.682;9.032;2022-12-18T05:20:20;20.40;;;10.53;;
13469;SDS011;6807;48.682;9.032;2022-12-18T05:22:48;19.23;;;10.43;;
13469;SDS011;6807;48.682;9.032;2022-12-18T05:25:15;18.63;;;8.83;;
13469;SDS011;6807;48.682;9.032;2022-12-18T05:27:43;21.53;;;11.87;;
13469;SDS011;6807;48.682;9.032;2022-12-18T05:30:12;16.20;;;9.93;;
13469;SDS011;6807;48.682;9.032;2022-12-18T05:32:40;16.10;;;9.33;;
13469;SDS011;6807;48.682;9.032;2022-12-18T05:35:08;16.57;;;10.60;;
13469;SDS011;6807;48.682;9.032;2022-12-18T05:37:37;18.40;;;10.50;;
13469;SDS011;6807;48.682;9.032;2022-12-18T05:40:04;20.77;;;10.27;;
13469;SDS011;6807;48.682;9.032;2022-12-18T05:42:32;12.57;;;8.83;;
13469;SDS011;6807;48.682;9.032;2022-12-18T05:44:59;9.07;;;5.47;;
13469;SDS011;6807;48.682;9.032;2022-12-18T05:47:28;9.67;;;7.33;;
13469;SDS011;6807;48.682;9.032;2022-12-18T05:49:55;9.97;;;6.80;;
13469;SDS011;6807;48.682;9.032;2022-12-18T05:52:23;19.40;;;9.63;;
13469;SDS011;6807;48.682;9.032;2022-12-18T05:54:50;18.10;;;10.57;;
13469;SDS011;6807;48.682;9.032;2022-12-18T05:57:17;17.77;;;7.70;;
13469;SDS011;6807;48.682;9.032;2022-12-18T05:59:46;19.57;;;11.53;;
13469;SDS011;6807;48.682;9.032;2022-12-18T06:02:13;16.80;;;9.67;;
13469;SDS011;6807;48.682;9.032;2022-12-18T06:04:42;21.67;;;10.10;;
13469;SDS011;6807;48.682;9.032;2022-12-18T06:07:09;16.37;;;8.87;;
13469;SDS011;6807;48.682;9.032;2022-12-18T06:09:36;20.77;;;11.90;;
13469;SDS011;6807;48.682;9.032;2022-12-18T06:12:04;14.23;;;8.60;;
13469;SDS011;6807;48.682;9.032;2022-12-18T06:14:31;18.97;;;11.17;;
13469;SDS011;6807;48.682;9.032;2022-12-18T06:16:59;15.13;;;9.70;;
13469;SDS011;6807;48.682;9.032;2022-12-18T06:19:26;20.60;;;9.10;;
13469;SDS011;6807;48.682;9.032;2022-12-18T06:21:55;15.70;;;8.77;;
13469;SDS011;6807;48.682;9.032;2022-12-18T06:24:24;16.17;;;9.93;;
13469;SDS011;6807;48.682;9.032;2022-12-18T06:26:51;22.13;;;8.90;;
13469;SDS011;6807;48.682;9.032;2022-12-18T06:29:18;20.80;;;10.47;;
13469;SDS011;6807;48.682;9.032;2022-12-18T06:31:45;14.40;;;8.80;;
13469;SDS011;6807;48.682;9.032;2022-12-18T06:34:13;18.13;;;10.33;;
13469;SDS011;6807;48.682;9.032;2022-12-18T06:36:40;14.03;;;8.10;;
13469;SDS011;6807;48.682;9.032;2022-12-18T06:39:09;17.67;;;8.63;;
13469;SDS011;6807;48.682;9.032;2022-12-18T06:41:36;18.67;;;9.00;;
13469;SDS011;6807;48.682;9.032;2022-12-18T06:44:03;16.43;;;10.10;;
13469;SDS011;6807;48.682;9.032;2022-12-18T06:46:31;12.50;;;7.43;;
13469;SDS011;6807;48.682;9.032;2022-12-18T06:48:58;16.97;;;8.93;;
13469;SDS011;6807;48.682;9.032;2022-12-18T06:51:25;12.80;;;8.83;;
13469;SDS011;6807;48.682;9.032;2022-12-18T06:53:52;23.43;;;11.70;;
13469;SDS011;6807;48.682;9.032;2022-12-18T06:56:21;20.23;;;9.03;;
13469;SDS011;6807;48.682;9.032;2022-12-18T06:58:51;18.50;;;10.27;;
13469;SDS011;6807;48.682;9.032;2022-12-18T07:01:23;22.53;;;10.33;;
13469;SDS011;6807;48.682;9.032;2022-12-18T07:03:51;18.30;;;10.90;;
13469;SDS011;6807;48.682;9.032;2022-12-18T07:06:20;16.73;;;9.57;;
13469;SDS011;6807;48.682;9.032;2022-12-18T07:08:48;19.73;;;10.27;;
13469;SDS011;6807;48.682;9.032;2022-12-18T07:11:17;15.87;;;10.07;;
13469;SDS011;6807;48.682;9.032;2022-12-18T07:13:46;20.37;;;10.77;;
13469;SDS011;6807;48.682;9.032;2022-12-18T07:16:14;16.13;;;10.03;;
13469;SDS011;6807;48.682;9.032;2022-12-18T07:18:45;21.37;;;11.67;;
13469;SDS011;6807;48.682;9.032;2022-12-18T07:21:14;17.40;;;9.73;;
13469;SDS011;6807;48.682;9.032;2022-12-18T07:23:42;22.23;;;10.43;;
13469;SDS011;6807;48.682;9.032;2022-12-18T07:26:10;21.03;;;10.23;;
13469;SDS011;6807;48.682;9.032;2022-12-18T07:28:39;21.03;;;11.27;;
13469;SDS011;6807;48.682;9.032;2022-12-18T07:31:09;17.23;;;9.30;;
13469;SDS011;6807;48.682;9.032;2022-12-18T07:33:36;17.93;;;10.37;;
13469;SDS011;6807;48.682;9.032;2022-12-18T07:36:05;19.70;;;10.50;;
13469;SDS011;6807;48.682;9.032;2022-12-18T07:38:32;19.70;;;10.63;;
13469;SDS011;6807;48.682;9.032;2022-12-18T07:41:00;23.27;;;10.50;;
13469;SDS011;6807;48.682;9.032;2022-12-18T07:43:35;23.93;;;11.13;;
13469;SDS011;6807;48.682;9.032;2022-12-18T07:46:13;21.83;;;10.53;;
13469;SDS011;6807;48.682;9.032;2022-12-18T07:48:41;22.67;;;12.67;;
13469;SDS011;6807;48.682;9.032;2022-12-18T07:51:14;20.37;;;10.33;;
13469;SDS011;6807;48.682;9.032;2022-12-18T07:53:41;24.60;;;12.03;;
13469;SDS011;6807;48.682;9.032;2022-12-18T07:56:09;19.73;;;10.93;;
13469;SDS011;6807;48.682;9.032;2022-12-18T07:58:38;22.47;;;11.30;;
13469;SDS011;6807;48.682;9.032;2022-12-18T08:01:14;23.17;;;11.87;;
13469;SDS011;6807;48.682;9.032;2022-12-18T08:03:42;29.27;;;13.70;;
13469;SDS011;6807;48.682;9.032;2022-12-18T08:06:09;25.23;;;11.67;;
13469;SDS011;6807;48.682;9.032;2022-12-18T08:08:37;24.27;;;10.20;;
13469;SDS011;6807;48.682;9.032;2022-12-18T08:11:05;27.67;;;12.53;;
13469;SDS011;6807;48.682;9.032;2022-12-18T08:13:33;24.50;;;11.47;;
13469;SDS011;6807;48.682;9.032;2022-12-18T08:16:01;21.20;;;11.43;;
13469;SDS011;6807;48.682;9.032;2022-12-18T08:18:32;30.17;;;12.80;;
13469;SDS011;6807;48.682;9.032;2022-12-18T08:21:07;24.60;;;10.93;;
13469;SDS011;6807;48.682;9.032;2022-12-18T08:23:34;23.77;;;11.83;;
13469;SDS011;6807;48.682;9.032;2022-12-18T08:26:01;31.97;;;14.00;;
13469;SDS011;6807;48.682;9.032;2022-12-18T08:28:31;23.80;;;13.57;;
13469;SDS011;6807;48.682;9.032;2022-12-18T08:30:58;28.90;;;15.03;;
13469;SDS011;6807;48.682;9.032;2022-12-18T08:33:26;26.33;;;13.70;;
13469;SDS011;6807;48.682;9.032;2022-12-18T08:35:55;33.27;;;12.90;;
13469;SDS011;6807;48.682;9.032;2022-12-18T08:38:26;22.10;;;12.30;;
13469;SDS011;6807;48.682;9.032;2022-12-18T08:40:57;29.67;;;18.50;;
13469;SDS011;6807;48.682;9.032;2022-12-18T08:43:27;32.07;;;13.07;;
13469;SDS011;6807;48.682;9.032;2022-12-18T08:46:15;25.03;;;13.33;;
13469;SDS011;6807;48.682;9.032;2022-12-18T08:48:44;26.57;;;15.10;;
13469;SDS011;6807;48.682;9.032;2022-12-18T08:51:13;28.20;;;12.45;;
13469;SDS011;6807;48.682;9.032;2022-12-18T08:53:40;23.92;;;12.75;;
13469;SDS011;6807;48.682;9.032;2022-12-18T08:56:07;22.23;;;11.40;;
13469;SDS011;6807;48.682;9.032;2022-12-18T08:58:35;22.90;;;11.63;;
13469;SDS011;6807;48.682;9.032;2022-12-18T09:01:03;32.23;;;14.97;;
13469;SDS011;6807;48.682;9.032;2022-12-18T09:03:31;42.63;;;18.52;;
13469;SDS011;6807;48.682;9.032;2022-12-18T09:06:00;30.27;;;17.98;;
13469;SDS011;6807;48.682;9.032;2022-12-18T09:08:29;25.65;;;14.35;;
13469;SDS011;6807;48.682;9.032;2022-12-18T09:11:00;29.67;;;16.40;;
13469;SDS011;6807;48.682;9.032;2022-12-18T09:13:28;24.67;;;14.77;;
13469;SDS011;6807;48.682;9.032;2022-12-18T09:15:55;25.77;;;17.23;;
13469;SDS011;6807;48.682;9.032;2022-12-18T09:18:23;23.52;;;15.02;;
13469;SDS011;6807;48.682;9.032;2022-12-18T09:20:51;25.95;;;13.98;;
13469;SDS011;6807;48.682;9.032;2022-12-18T09:23:18;24.85;;;14.85;;
13469;SDS011;6807;48.682;9.032;2022-12-18T09:25:59;23.33;;;13.80;;
13469;SDS011;6807;48.682;9.032;2022-12-18T09:28:27;23.63;;;14.60;;
13469;SDS011;6807;48.682;9.032;2022-12-18T09:30:54;20.27;;;13.52;;
13469;SDS011;6807;48.682;9.032;2022-12-18T09:33:21;22.65;;;14.32;;
13469;SDS011;6807;48.682;9.032;2022-12-18T09:35:49;19.35;;;11.65;;
13469;SDS011;6807;48.682;9.032;2022-12-18T09:38:17;21.88;;;12.38;;
13469;SDS011;6807;48.682;9.032;2022-12-18T09:40:47;21.08;;;12.65;;
13469;SDS011;6807;48.682;9.032;2022-12-18T09:43:18;21.27;;;12.52;;
13469;SDS011;6807;48.682;9.032;2022-12-18T09:45:47;22.95;;;13.23;;
13469;SDS011;6807;48.682;9.032;2022-12-18T10:10:26;20.00;;;10.00;;
13469;SDS011;6807;48.682;9.032;2022-12-18T10:12:56;25.35;;;11.70;;
13469;SDS011;6807;48.682;9.032;2022-12-18T10:15:27;20.25;;;11.15;;
13469;SDS011;6807;48.682;9.032;2022-12-18T10:17:59;23.40;;;12.05;;
13469;SDS011;6807;48.682;9.032;2022-12-18T10:20:30;10.15;;;6.00;;
13469;SDS011;6807;48.682;9.032;2022-12-18T10:23:02;19.65;;;11.35;;
13469;SDS011;6807;48.682;9.032;2022-12-18T10:25:34;20.48;;;11.60;;
13469;SDS011;6807;48.682;9.032;2022-12-18T10:28:07;21.02;;;11.50;;
13469;SDS011;6807;48.682;9.032;2022-12-18T10:30:38;24.77;;;13.27;;
13469;SDS011;6807;48.682;9.032;2022-12-18T10:33:05;31.33;;;17.50;;
13469;SDS011;6807;48.682;9.032;2022-12-18T10:35:33;31.50;;;14.88;;
13469;SDS011;6807;48.682;9.032;2022-12-18T10:38:19;25.02;;;11.68;;
13469;SDS011;6807;48.682;9.032;2022-12-18T10:40:52;20.75;;;10.65;;
13469;SDS011;6807;48.682;9.032;2022-12-18T10:43:27;21.80;;;11.50;;
13469;SDS011;6807;48.682;9.032;2022-12-18T10:48:50;21.73;;;12.38;;
13469;SDS011;6807;48.682;9.032;2022-12-18T10:51:20;25.70;;;11.68;;
13469;SDS011;6807;48.682;9.032;2022-12-18T11:00:24;17.98;;;10.05;;
13469;SDS011;6807;48.682;9.032;2022-12-18T11:02:53;23.83;;;12.05;;
13469;SDS011;6807;48.682;9.032;2022-12-18T11:05:42;28.75;;;13.40;;
13469;SDS011;6807;48.682;9.032;2022-12-18T11:08:18;16.23;;;8.27;;
13469;SDS011;6807;48.682;9.032;2022-12-18T11:10:48;24.10;;;12.95;;
13469;SDS011;6807;48.682;9.032;2022-12-18T11:13:16;25.90;;;13.35;;
13469;SDS011;6807;48.682;9.032;2022-12-18T11:15:46;16.63;;;9.43;;
13469;SDS011;6807;48.682;9.032;2022-12-18T11:18:17;22.67;;;12.13;;
13469;SDS011;6807;48.682;9.032;2022-12-18T11:20:50;22.23;;;13.25;;
13469;SDS011;6807;48.682;9.032;2022-12-18T11:23:18;20.13;;;9.60;;
13469;SDS011;6807;48.682;9.032;2022-12-18T11:25:50;21.70;;;10.55;;
13469;SDS011;6807;48.682;9.032;2022-12-18T11:28:29;21.58;;;11.77;;
13469;SDS011;6807;48.682;9.032;2022-12-18T11:31:09;12.98;;;6.35;;
13469;SDS011;6807;48.682;9.032;2022-12-18T11:33:39;20.38;;;10.80;;
13469;SDS011;6807;48.682;9.032;2022-12-18T11:36:08;22.35;;;12.18;;
13469;SDS011;6807;48.682;9.032;2022-12-18T12:00:31;23.17;;;13.63;;
13469;SDS011;6807;48.682;9.032;2022-12-18T12:03:06;22.13;;;13.38;;
13469;SDS011;6807;48.682;9.032;2022-12-18T12:05:42;24.35;;;12.93;;
13469;SDS011;6807;48.682;9.032;2022-12-18T12:43:32;22.95;;;12.35;;
13469;SDS011;6807;48.682;9.032;2022-12-18T12:49:09;26.83;;;13.35;;
13469;SDS011;6807;48.682;9.032;2022-12-18T12:51:49;24.95;;;13.98;;
13469;SDS011;6807;48.682;9.032;2022-12-18T12:54:44;22.77;;;12.38;;
13469;SDS011;6807;48.682;9.032;2022-12-18T12:57:15;26.45;;;14.43;;
13469;SDS011;6807;48.682;9.032;2022-12-18T12:59:56;18.85;;;10.13;;
13469;SDS011;6807;48.682;9.032;2022-12-18T13:02:26;25.20;;;13.65;;
13469;SDS011;6807;48.682;9.032;2022-12-18T13:04:56;25.60;;;13.40;;
13469;SDS011;6807;48.682;9.032;2022-12-18T13:07:27;27.63;;;13.52;;
13469;SDS011;6807;48.682;9.032;2022-12-18T13:10:12;28.02;;;14.00;;
13469;SDS011;6807;48.682;9.032;2022-12-18T13:12:51;29.48;;;13.80;;
13469;SDS011;6807;48.682;9.032;2022-12-18T13:15:26;25.27;;;14.25;;
13469;SDS011;6807;48.682;9.032;2022-12-18T13:18:12;27.02;;;13.63;;
13469;SDS011;6807;48.682;9.032;2022-12-18T13:20:45;25.00;;;11.82;;
13469;SDS011;6807;48.682;9.032;2022-12-18T13:25:59;22.73;;;12.50;;
13469;SDS011;6807;48.682;9.032;2022-12-18T13:31:14;20.98;;;9.68;;
13469;SDS011;6807;48.682;9.032;2022-12-18T13:33:45;29.05;;;12.30;;
13469;SDS011;6807;48.682;9.032;2022-12-18T13:36:30;23.50;;;12.23;;
13469;SDS011;6807;48.682;9.032;2022-12-18T13:39:15;27.38;;;13.20;;
13469;SDS011;6807;48.682;9.032;2022-12-18T13:48:13;23.65;;;12.75;;
13469;SDS011;6807;48.682;9.032;2022-12-18T13:50:41;23.02;;;11.45;;
13469;SDS011;6807;48.682;9.032;2022-12-18T13:53:15;28.45;;;13.93;;
13469;SDS011;6807;48.682;9.032;2022-12-18T13:55:47;29.85;;;14.77;;
13469;SDS011;6807;48.682;9.032;2022-12-18T13:58:14;29.20;;;15.35;;
13469;SDS011;6807;48.682;9.032;2022-12-18T14:00:41;24.73;;;12.15;;
13469;SDS011;6807;48.682;9.032;2022-12-18T14:03:16;16.17;;;10.32;;
13469;SDS011;6807;48.682;9.032;2022-12-18T14:05:44;29.52;;;13.07;;
13469;SDS011;6807;48.682;9.032;2022-12-18T14:08:12;31.20;;;17.10;;
13469;SDS011;6807;48.682;9.032;2022-12-18T14:10:40;31.20;;;17.45;;
13469;SDS011;6807;48.682;9.032;2022-12-18T14:13:08;22.52;;;11.00;;
13469;SDS011;6807;48.682;9.032;2022-12-18T14:15:38;28.90;;;14.25;;
13469;SDS011;6807;48.682;9.032;2022-12-18T14:18:13;22.35;;;12.43;;
13469;SDS011;6807;48.682;9.032;2022-12-18T14:35:00;37.63;;;17.95;;
13469;SDS011;6807;48.682;9.032;2022-12-18T14:37:41;17.67;;;10.05;;
13469;SDS011;6807;48.682;9.032;2022-12-18T14:40:11;22.17;;;12.82;;
13469;SDS011;6807;48.682;9.032;2022-12-18T14:42:46;20.92;;;12.70;;
13469;SDS011;6807;48.682;9.032;2022-12-18T14:48:16;29.13;;;15.70;;
13469;SDS011;6807;48.682;9.032;2022-12-18T14:50:44;29.83;;;15.20;;
13469;SDS011;6807;48.682;9.032;2022-12-18T14:53:20;28.92;;;13.30;;
13469;SDS011;6807;48.682;9.032;2022-12-18T14:55:48;27.42;;;13.75;;
13469;SDS011;6807;48.682;9.032;2022-12-18T14:58:16;30.05;;;14.68;;
13469;SDS011;6807;48.682;9.032;2022-12-18T15:00:44;32.05;;;16.02;;
13469;SDS011;6807;48.682;9.032;2022-12-18T15:03:12;30.80;;;14.73;;
13469;SDS011;6807;48.682;9.032;2022-12-18T15:05:45;29.80;;;15.27;;
13469;SDS011;6807;48.682;9.032;2022-12-18T15:08:29;26.77;;;12.10;;
13469;SDS011;6807;48.682;9.032;2022-12-18T15:10:56;23.65;;;13.55;;
13469;SDS011;6807;48.682;9.032;2022-12-18T15:13:24;21.48;;;12.18;;
13469;SDS011;6807;48.682;9.032;2022-12-18T15:15:52;27.42;;;13.70;;
13469;SDS011;6807;48.682;9.032;2022-12-18T15:18:20;30.20;;;14.52;;
13469;SDS011;6807;48.682;9.032;2022-12-18T15:20:48;35.97;;;17.05;;
13469;SDS011;6807;48.682;9.032;2022-12-18T15:23:19;34.22;;;16.60;;
13469;SDS011;6807;48.682;9.032;2022-12-18T15:25:49;38.88;;;17.52;;
13469;SDS011;6807;48.682;9.032;2022-12-18T15:28:22;36.03;;;16.70;;
13469;SDS011;6807;48.682;9.032;2022-12-18T15:31:00;35.95;;;17.55;;
13469;SDS011;6807;48.682;9.032;2022-12-18T15:33:30;34.72;;;16.52;;
13469;SDS011;6807;48.682;9.032;2022-12-18T15:35:58;34.33;;;15.98;;
13469;SDS011;6807;48.682;9.032;2022-12-18T15:38:26;36.38;;;18.02;;
13469;SDS011;6807;48.682;9.032;2022-12-18T15:40:56;32.33;;;16.45;;
13469;SDS011;6807;48.682;9.032;2022-12-18T15:43:24;28.33;;;13.27;;
13469;SDS011;6807;48.682;9.032;2022-12-18T15:46:01;31.35;;;16.63;;
13469;SDS011;6807;48.682;9.032;2022-12-18T15:48:29;35.50;;;17.92;;
13469;SDS011;6807;48.682;9.032;2022-12-18T15:50:57;31.80;;;16.00;;
13469;SDS011;6807;48.682;9.032;2022-12-18T15:53:25;30.98;;;14.30;;
13469;SDS011;6807;48.682;9.032;2022-12-18T15:55:53;33.65;;;15.13;;
13469;SDS011;6807;48.682;9.032;2022-12-18T15:58:39;35.42;;;17.13;;
13469;SDS011;6807;48.682;9.032;2022-12-18T16:01:09;31.27;;;14.95;;
13469;SDS011;6807;48.682;9.032;2022-12-18T16:03:36;84.07;;;34.38;;
13469;SDS011;6807;48.682;9.032;2022-12-18T16:06:04;61.55;;;30.02;;
13469;SDS011;6807;48.682;9.032;2022-12-18T16:08:31;49.13;;;23.52;;
13469;SDS011;6807;48.682;9.032;2022-12-18T16:10:59;30.75;;;16.55;;
13469;SDS011;6807;48.682;9.032;2022-12-18T16:13:26;41.15;;;18.88;;
13469;SDS011;6807;48.682;9.032;2022-12-18T16:15:55;35.90;;;16.08;;
13469;SDS011;6807;48.682;9.032;2022-12-18T16:18:22;32.38;;;15.98;;
13469;SDS011;6807;48.682;9.032;2022-12-18T16:20:50;22.13;;;14.10;;
13469;SDS011;6807;48.682;9.032;2022-12-18T16:23:17;34.78;;;16.55;;
13469;SDS011;6807;48.682;9.032;2022-12-18T16:25:44;25.60;;;12.05;;
13469;SDS011;6807;48.682;9.032;2022-12-18T16:28:12;35.40;;;15.68;;
13469;SDS011;6807;48.682;9.032;2022-12-18T16:30:39;34.35;;;16.05;;
13469;SDS011;6807;48.682;9.032;2022-12-18T16:33:08;39.83;;;18.52;;
13469;SDS011;6807;48.682;9.032;2022-12-18T16:35:36;38.10;;;17.00;;
13469;SDS011;6807;48.682;9.032;2022-12-18T16:38:04;53.58;;;29.27;;
13469;SDS011;6807;48.682;9.032;2022-12-18T16:40:31;44.08;;;19.08;;
13469;SDS011;6807;48.682;9.032;2022-12-18T16:43:18;33.20;;;16.25;;
13469;SDS011;6807;48.682;9.032;2022-12-18T16:45:46;33.28;;;17.52;;
13469;SDS011;6807;48.682;9.032;2022-12-18T16:48:14;36.00;;;18.30;;
13469;SDS011;6807;48.682;9.032;2022-12-18T16:50:42;35.88;;;16.75;;
13469;SDS011;6807;48.682;9.032;2022-12-18T16:53:09;32.40;;;15.82;;
13469;SDS011;6807;48.682;9.032;2022-12-18T16:55:37;53.05;;;24.08;;
13469;SDS011;6807;48.682;9.032;2022-12-18T16:58:04;55.53;;;22.23;;
13469;SDS011;6807;48.682;9.032;2022-12-18T17:00:31;38.72;;;19.48;;
13469;SDS011;6807;48.682;9.032;2022-12-18T17:02:59;36.33;;;16.73;;
13469;SDS011;6807;48.682;9.032;2022-12-18T17:05:31;32.85;;;17.58;;
13469;SDS011;6807;48.682;9.032;2022-12-18T17:07:59;31.25;;;16.70;;